Time;durP1;ratioP1;P1;durP2;ratioP2;P2;SDS_P1;SDS_P2;PMS_P1;PMS_P2;Temp;Humidity;BMP_temperature;BMP_pressure;BME280_temperature;BME280_humidity;BME280_pressure;Samples;Min_cycle;Max_cycle;Signal;HPM_P1;HPM_P2
2021/01/03 00:00:26;;;;;;;11.48;9.07;;;15.10;76.30;;;;;;5026538;28;20030;-74
2021/01/03 00:02:53;;;;;;;18.75;12.25;;;15.10;76.20;;;;;;5031030;28;20439;-73
2021/01/03 00:05:23;;;;;;;20.70;12.40;;;15.20;75.80;;;;;;5043156;28;20025;-74
2021/01/03 00:07:50;;;;;;;20.77;11.77;;;15.20;75.80;;;;;;5042432;28;20032;-74
2021/01/03 00:10:17;;;;;;;12.10;10.70;;;15.20;75.30;;;;;;5035769;28;20033;-74
2021/01/03 00:12:44;;;;;;;15.40;9.77;;;15.20;75.80;;;;;;5036818;28;20101;-73
2021/01/03 00:15:14;;;;;;;12.27;9.15;;;15.10;75.90;;;;;;5033539;28;20105;-77
2021/01/03 00:17:41;;;;;;;12.55;9.48;;;15.20;76.00;;;;;;5033975;28;20100;-73
2021/01/03 00:20:11;;;;;;;11.95;7.72;;;15.20;75.80;;;;;;5048244;28;20025;-73
2021/01/03 00:22:38;;;;;;;14.85;9.55;;;15.20;75.70;;;;;;5036239;28;20026;-73
2021/01/03 00:25:09;;;;;;;13.00;10.32;;;15.30;75.70;;;;;;5042324;28;20028;-75
2021/01/03 00:27:36;;;;;;;15.85;10.73;;;15.30;75.70;;;;;;5028986;28;20522;-74
2021/01/03 00:30:07;;;;;;;21.10;9.50;;;15.30;75.60;;;;;;5016841;28;20053;-74
2021/01/03 00:32:34;;;;;;;11.73;9.05;;;15.30;75.40;;;;;;5019588;28;20415;-73
2021/01/03 00:35:01;;;;;;;13.85;7.68;;;15.20;75.30;;;;;;5038341;28;20028;-74
2021/01/03 00:37:27;;;;;;;12.63;9.07;;;15.20;75.30;;;;;;5033983;28;20026;-73
2021/01/03 00:39:53;;;;;;;14.13;8.88;;;15.20;75.20;;;;;;5035601;28;20048;-75
2021/01/03 00:42:20;;;;;;;13.55;8.25;;;15.20;75.10;;;;;;5029043;28;20116;-75
2021/01/03 00:44:46;;;;;;;15.18;8.63;;;15.20;75.10;;;;;;5046112;28;20021;-75
2021/01/03 00:47:13;;;;;;;14.00;8.63;;;15.20;75.00;;;;;;5035256;28;20022;-75
2021/01/03 00:49:39;;;;;;;13.10;8.95;;;15.10;74.90;;;;;;5032949;28;20045;-75
2021/01/03 00:52:06;;;;;;;14.73;8.88;;;15.10;74.90;;;;;;5018781;28;20033;-75
2021/01/03 00:54:32;;;;;;;12.13;9.30;;;15.10;74.80;;;;;;5035480;28;20033;-75
2021/01/03 00:56:58;;;;;;;10.20;9.00;;;15.10;74.90;;;;;;5036660;28;20477;-75
2021/01/03 00:59:25;;;;;;;16.88;9.52;;;15.10;75.10;;;;;;5035032;28;20033;-75
2021/01/03 01:01:51;;;;;;;27.10;15.15;;;15.00;74.90;;;;;;5043757;28;20032;-75
2021/01/03 01:04:18;;;;;;;17.45;11.95;;;14.90;76.00;;;;;;5037840;28;20465;-76
2021/01/03 01:06:45;;;;;;;25.20;12.88;;;14.90;75.70;;;;;;5037816;28;20029;-75
2021/01/03 01:09:11;;;;;;;19.40;12.75;;;14.80;76.00;;;;;;5031690;28;20546;-75
2021/01/03 01:11:42;;;;;;;18.67;10.88;;;14.90;75.70;;;;;;5026078;28;20051;-75
2021/01/03 01:14:10;;;;;;;16.45;8.07;;;14.80;76.00;;;;;;5027284;28;20025;-75
2021/01/03 01:16:38;;;;;;;23.92;6.55;;;14.80;75.30;;;;;;5054838;28;20051;-75
2021/01/03 01:19:05;;;;;;;30.55;7.53;;;15.00;74.40;;;;;;5029887;28;20049;-75
2021/01/03 01:21:32;;;;;;;23.95;6.93;;;14.90;74.20;;;;;;5014707;28;20034;-75
2021/01/03 01:24:19;;;;;;;16.98;5.25;;;14.80;74.90;;;;;;5021543;28;20531;-75
2021/01/03 01:26:45;;;;;;;19.33;5.20;;;14.80;74.90;;;;;;5010864;28;20043;-75
2021/01/03 01:29:11;;;;;;;22.42;6.40;;;14.80;75.30;;;;;;5011869;28;20030;-75
2021/01/03 01:31:38;;;;;;;28.42;7.75;;;14.80;75.00;;;;;;5013686;28;20038;-75
2021/01/03 01:34:04;;;;;;;17.17;5.85;;;14.80;74.50;;;;;;5012861;28;20097;-75
2021/01/03 01:36:30;;;;;;;19.77;5.63;;;14.80;74.90;;;;;;5016037;28;20045;-75
2021/01/03 01:38:57;;;;;;;19.13;5.93;;;14.80;75.20;;;;;;5001155;28;20468;-74
2021/01/03 01:41:23;;;;;;;20.65;5.45;;;14.70;75.20;;;;;;5014024;28;20440;-74
2021/01/03 01:43:50;;;;;;;17.88;6.18;;;14.80;75.20;;;;;;4998308;28;20049;-74
2021/01/03 01:46:29;;;;;;;18.42;5.07;;;14.80;74.90;;;;;;5012313;28;20026;-74
2021/01/03 01:48:56;;;;;;;25.92;7.22;;;14.80;74.40;;;;;;5011536;28;20029;-74
2021/01/03 01:51:28;;;;;;;19.90;6.43;;;14.90;73.80;;;;;;5005092;28;20042;-74
2021/01/03 01:54:14;;;;;;;21.38;6.53;;;14.80;74.00;;;;;;5017278;28;20021;-75
2021/01/03 01:56:44;;;;;;;26.92;6.72;;;14.90;73.80;;;;;;5011168;28;20065;-74
2021/01/03 01:59:20;;;;;;;17.75;5.43;;;14.90;73.70;;;;;;5013711;28;20105;-73
2021/01/03 02:02:04;;;;;;;17.30;5.90;;;14.90;74.30;;;;;;5015795;28;20057;-75
2021/01/03 02:04:44;;;;;;;16.17;8.02;;;14.70;75.10;;;;;;5027848;28;20045;-74
2021/01/03 02:07:35;;;;;;;20.67;10.98;;;14.70;75.30;;;;;;5035219;28;20116;-74
2021/01/03 02:10:39;;;;;;;27.38;12.98;;;14.40;77.00;;;;;;5027337;28;20459;-75
2021/01/03 02:13:21;;;;;;;24.95;11.52;;;14.40;77.00;;;;;;5031957;28;20064;-74
2021/01/03 02:15:48;;;;;;;38.03;20.37;;;14.50;76.50;;;;;;5036903;28;20017;-74
2021/01/03 02:18:16;;;;;;;39.83;21.25;;;14.30;77.60;;;;;;5035183;28;20439;-74
2021/01/03 02:21:12;;;;;;;37.75;21.73;;;14.10;78.40;;;;;;5042404;28;20111;-74
2021/01/03 02:23:47;;;;;;;31.70;19.58;;;14.00;78.80;;;;;;5030270;28;20467;-75
2021/01/03 02:26:14;;;;;;;22.63;7.97;;;14.10;78.60;;;;;;5025677;28;20025;-74
2021/01/03 02:28:43;;;;;;;17.92;5.22;;;14.10;78.10;;;;;;5037010;28;20061;-74
2021/01/03 02:31:12;;;;;;;22.67;9.20;;;14.10;78.40;;;;;;5037055;28;20045;-74
2021/01/03 02:33:43;;;;;;;18.63;5.65;;;14.20;78.20;;;;;;5030439;28;20026;-74
2021/01/03 02:36:19;;;;;;;22.92;12.07;;;14.30;76.80;;;;;;5031595;28;20357;-74
2021/01/03 02:39:00;;;;;;;27.35;17.33;;;14.30;77.30;;;;;;5028700;28;20088;-74
2021/01/03 02:41:27;;;;;;;22.50;14.57;;;14.20;78.00;;;;;;5038541;28;20035;-74
2021/01/03 02:43:54;;;;;;;29.48;21.58;;;14.30;77.60;;;;;;5036531;28;20021;-74
2021/01/03 02:46:21;;;;;;;28.95;23.08;;;14.30;77.80;;;;;;5039577;28;20374;-74
2021/01/03 02:48:47;;;;;;;35.83;21.90;;;14.10;78.40;;;;;;5035489;28;20025;-74
2021/01/03 02:51:14;;;;;;;27.58;15.65;;;14.10;77.90;;;;;;5036987;28;20021;-74
2021/01/03 02:53:40;;;;;;;33.85;22.23;;;14.20;77.70;;;;;;5037626;28;20033;-75
2021/01/03 02:56:07;;;;;;;31.52;21.08;;;14.00;78.30;;;;;;5032073;28;20021;-73
2021/01/03 02:58:33;;;;;;;27.08;21.83;;;14.10;78.00;;;;;;5035275;28;20410;-75
2021/01/03 03:00:59;;;;;;;28.40;21.13;;;14.10;78.40;;;;;;5029029;28;20030;-74
2021/01/03 03:03:26;;;;;;;28.15;23.02;;;13.90;78.60;;;;;;5047765;28;20025;-74
2021/01/03 03:05:53;;;;;;;28.73;23.52;;;13.90;78.90;;;;;;5033868;28;20051;-76
2021/01/03 03:08:20;;;;;;;24.67;19.85;;;14.00;78.60;;;;;;5038068;28;20048;-74
2021/01/03 03:10:46;;;;;;;30.65;21.42;;;14.10;78.30;;;;;;5034011;28;20195;-74
2021/01/03 03:13:12;;;;;;;23.88;17.95;;;14.10;78.10;;;;;;5036769;28;20029;-74
2021/01/03 03:15:39;;;;;;;19.92;17.85;;;14.20;77.70;;;;;;5033973;28;20053;-74
2021/01/03 03:18:08;;;;;;;19.42;14.55;;;14.30;77.30;;;;;;5023688;28;20404;-75
2021/01/03 03:20:36;;;;;;;23.35;14.50;;;14.30;77.20;;;;;;5033068;28;20018;-74
2021/01/03 03:23:02;;;;;;;17.00;11.75;;;14.20;77.60;;;;;;5037349;28;20033;-74
2021/01/03 03:25:29;;;;;;;18.92;11.60;;;14.20;77.50;;;;;;5044003;28;20021;-76
2021/01/03 03:27:55;;;;;;;22.67;12.90;;;14.20;77.40;;;;;;5038713;28;20451;-72
2021/01/03 03:30:23;;;;;;;16.00;11.30;;;14.10;77.60;;;;;;5038761;28;20524;-73
2021/01/03 03:32:52;;;;;;;22.40;11.45;;;14.10;77.60;;;;;;5041351;28;20071;-73
2021/01/03 03:35:24;;;;;;;17.25;10.73;;;13.90;78.20;;;;;;5035265;28;20026;-74
2021/01/03 03:37:51;;;;;;;23.75;11.43;;;14.00;77.80;;;;;;5037907;28;20030;-72
2021/01/03 03:40:18;;;;;;;17.92;10.77;;;14.00;77.70;;;;;;5041733;28;20029;-72
2021/01/03 03:42:44;;;;;;;21.10;11.18;;;13.90;78.10;;;;;;5033601;28;20017;-75
2021/01/03 03:45:12;;;;;;;25.83;12.95;;;13.80;78.40;;;;;;5034853;28;20104;-74
2021/01/03 03:47:39;;;;;;;30.77;15.77;;;13.80;78.80;;;;;;5031355;28;20032;-72
2021/01/03 03:50:15;;;;;;;24.60;11.98;;;13.70;79.00;;;;;;5033883;28;20022;-74
2021/01/03 03:52:41;;;;;;;23.70;14.82;;;13.70;79.10;;;;;;5033753;28;20033;-72
2021/01/03 03:55:08;;;;;;;24.05;15.10;;;13.70;79.10;;;;;;5037367;28;20098;-74
2021/01/03 03:57:34;;;;;;;22.90;16.08;;;13.60;79.40;;;;;;5038780;28;20036;-73
2021/01/03 04:00:04;;;;;;;21.63;14.68;;;13.60;79.30;;;;;;5041172;28;20021;-72
2021/01/03 04:02:30;;;;;;;27.48;18.00;;;13.70;79.00;;;;;;5037186;28;20049;-74
2021/01/03 04:04:56;;;;;;;37.45;20.20;;;13.60;79.70;;;;;;5042814;28;20033;-74
2021/01/03 04:07:23;;;;;;;36.60;20.23;;;13.50;80.00;;;;;;5037412;28;20021;-76
2021/01/03 04:09:49;;;;;;;24.20;17.50;;;13.50;80.30;;;;;;5038920;28;20021;-74
2021/01/03 04:12:15;;;;;;;31.20;20.98;;;13.50;80.00;;;;;;5036276;28;20040;-74
2021/01/03 04:14:42;;;;;;;32.97;20.73;;;13.70;79.40;;;;;;5035719;28;20029;-72
2021/01/03 04:17:08;;;;;;;32.60;20.65;;;13.80;78.70;;;;;;5029424;28;20033;-72
2021/01/03 04:19:35;;;;;;;22.27;18.77;;;13.80;78.60;;;;;;5035109;28;20030;-74
2021/01/03 04:22:04;;;;;;;22.25;16.58;;;13.90;78.10;;;;;;5034498;28;20021;-71
2021/01/03 04:24:31;;;;;;;24.50;18.40;;;14.00;77.80;;;;;;5033988;28;20076;-71
2021/01/03 04:27:00;;;;;;;29.05;21.60;;;14.00;77.30;;;;;;5038236;28;20407;-72
2021/01/03 04:29:28;;;;;;;21.20;16.20;;;14.10;76.90;;;;;;5036309;28;20032;-72
2021/01/03 04:32:12;;;;;;;22.35;16.23;;;14.10;77.00;;;;;;5032070;28;20036;-72
2021/01/03 04:34:40;;;;;;;26.45;19.35;;;14.10;77.20;;;;;;5031657;28;20026;-73
2021/01/03 04:37:06;;;;;;;28.27;20.92;;;14.10;76.90;;;;;;5036104;28;20093;-73
2021/01/03 04:39:33;;;;;;;26.27;19.25;;;14.10;76.70;;;;;;5036023;28;20055;-72
2021/01/03 04:42:04;;;;;;;23.58;17.80;;;14.10;76.60;;;;;;5040357;28;20029;-73
2021/01/03 04:44:41;;;;;;;33.85;22.05;;;14.10;76.70;;;;;;5038193;28;20018;-72
2021/01/03 04:47:30;;;;;;;37.85;23.92;;;14.20;75.70;;;;;;5037860;28;20028;-73
2021/01/03 04:50:20;;;;;;;26.70;20.17;;;14.20;75.40;;;;;;5034347;28;20030;-74
2021/01/03 04:53:01;;;;;;;24.33;18.52;;;14.20;75.80;;;;;;5019008;28;20056;-72
2021/01/03 04:55:30;;;;;;;31.30;22.80;;;14.10;76.50;;;;;;5024965;28;20462;-74
2021/01/03 04:58:12;;;;;;;28.75;21.38;;;14.10;77.00;;;;;;5039747;28;20051;-73
2021/01/03 05:00:47;;;;;;;;;;;14.10;77.20;;;;;;5032876;28;20099;-74
2021/01/03 05:03:46;;;;;;;27.05;19.30;;;14.10;76.80;;;;;;5034427;28;19966;-73
2021/01/03 05:06:24;;;;;;;28.00;22.58;;;14.20;76.80;;;;;;5037305;28;20021;-75
2021/01/03 05:09:01;;;;;;;33.55;24.35;;;14.20;76.90;;;;;;5029239;28;20025;-77
2021/01/03 05:11:43;;;;;;;30.67;22.65;;;14.10;77.40;;;;;;5034557;28;20036;-73
2021/01/03 05:14:12;;;;;;;25.50;20.58;;;14.10;77.10;;;;;;5036211;28;20497;-73
2021/01/03 05:16:38;;;;;;;29.02;22.45;;;14.20;77.00;;;;;;5039882;28;20362;-72
2021/01/03 05:19:05;;;;;;;35.92;23.35;;;14.20;76.80;;;;;;5041537;28;20029;-73
2021/01/03 05:21:52;;;;;;;31.85;22.17;;;14.20;76.60;;;;;;5039383;28;20049;-74
2021/01/03 05:24:21;;;;;;;28.40;22.25;;;14.20;76.50;;;;;;5028853;28;20025;-73
2021/01/03 05:26:47;;;;;;;29.98;21.85;;;14.20;76.50;;;;;;5037533;28;20025;-73
2021/01/03 05:29:27;;;;;;;32.33;24.35;;;14.30;76.50;;;;;;5032309;28;20034;-73
2021/01/03 05:32:04;;;;;;;37.45;25.90;;;14.20;76.40;;;;;;5037890;28;20039;-75
2021/01/03 05:34:36;;;;;;;35.30;24.45;;;14.30;76.30;;;;;;5022761;28;20030;-75
2021/01/03 05:37:11;;;;;;;37.63;30.13;;;14.30;76.10;;;;;;5025172;28;20056;-73
2021/01/03 05:39:38;;;;;;;52.15;32.70;;;14.30;76.00;;;;;;5037882;28;20518;-75
2021/01/03 05:42:20;;;;;;;57.05;39.15;;;14.20;75.70;;;;;;5033387;28;20056;-73
2021/01/03 05:45:21;;;;;;;57.00;35.75;;;14.30;75.00;;;;;;5033822;28;20033;-73
2021/01/03 05:47:58;;;;;;;62.33;37.63;;;14.30;74.70;;;;;;5035708;28;20112;-75
2021/01/03 05:50:35;;;;;;;41.88;27.40;;;14.30;74.90;;;;;;5034421;28;20025;-73
2021/01/03 05:53:17;;;;;;;47.78;28.67;;;14.10;75.70;;;;;;5027333;28;20017;-74
2021/01/03 05:56:21;;;;;;;41.75;27.52;;;14.00;76.70;;;;;;5029141;28;20018;-73
2021/01/03 05:58:54;;;;;;;30.45;21.80;;;13.80;77.60;;;;;;5028068;28;20040;-72
2021/01/03 06:01:29;;;;;;;24.10;20.05;;;13.80;77.60;;;;;;5037658;28;20040;-73
2021/01/03 06:04:05;;;;;;;28.40;19.00;;;13.90;77.30;;;;;;5040811;28;20045;-73
2021/01/03 06:06:47;;;;;;;27.65;18.48;;;13.90;77.40;;;;;;5029891;28;20120;-73
2021/01/03 06:09:16;;;;;;;28.58;20.80;;;14.00;77.10;;;;;;5025091;28;20047;-73
2021/01/03 06:12:06;;;;;;;26.25;19.17;;;14.00;76.80;;;;;;5029845;28;20362;-73
2021/01/03 06:14:33;;;;;;;39.50;23.35;;;14.10;76.80;;;;;;5032995;28;20451;-73
2021/01/03 06:17:18;;;;;;;27.80;21.27;;;14.10;76.30;;;;;;5021385;28;20026;-73
2021/01/03 06:19:53;;;;;;;31.05;19.65;;;14.10;76.40;;;;;;5027222;28;20061;-75
2021/01/03 06:22:58;;;;;;;24.38;18.60;;;14.10;76.30;;;;;;5033538;28;20631;-73
2021/01/03 06:25:42;;;;;;;26.42;17.70;;;14.10;76.60;;;;;;5031549;28;20036;-73
2021/01/03 06:28:27;;;;;;;29.60;18.48;;;14.10;76.50;;;;;;5036474;28;20025;-73
2021/01/03 06:31:17;;;;;;;28.60;20.35;;;14.20;76.40;;;;;;5023866;28;20029;-74
2021/01/03 06:34:17;;;;;;;28.92;18.60;;;14.20;76.10;;;;;;5028615;28;20029;-73
2021/01/03 06:36:55;;;;;;;35.67;20.88;;;14.20;75.70;;;;;;5018936;28;20465;-74
2021/01/03 06:39:28;;;;;;;33.88;22.35;;;14.20;75.80;;;;;;5037918;28;20030;-73
2021/01/03 06:42:00;;;;;;;30.05;21.10;;;14.20;75.50;;;;;;5028608;28;20040;-73
2021/01/03 06:45:00;;;;;;;25.15;19.58;;;14.10;75.80;;;;;;5035411;28;20325;-73
2021/01/03 06:47:56;;;;;;;30.83;19.95;;;14.10;76.10;;;;;;5046908;28;20367;-74
2021/01/03 06:50:55;;;;;;;33.30;21.30;;;14.10;76.10;;;;;;5060043;28;20029;-74
2021/01/03 06:54:09;;;;;;;33.28;23.65;;;14.10;76.00;;;;;;5025157;28;20030;-75
2021/01/03 07:14:50;;;;;;;27.65;16.45;;;14.10;75.90;;;;;;4873885;29;20044;-73
2021/01/03 07:17:28;;;;;;;20.50;15.57;;;14.00;76.00;;;;;;4873884;29;20052;-74
2021/01/03 07:20:04;;;;;;;25.27;17.05;;;14.00;76.10;;;;;;4953222;28;20035;-74
2021/01/03 07:22:49;;;;;;;22.58;16.35;;;14.00;76.10;;;;;;4958369;28;20046;-74
2021/01/03 07:25:24;;;;;;;27.38;15.32;;;14.00;75.60;;;;;;5025471;28;20033;-73
2021/01/03 07:28:18;;;;;;;29.25;18.00;;;14.00;76.00;;;;;;5028169;28;20029;-73
2021/01/03 07:31:32;;;;;;;32.40;18.70;;;14.00;75.70;;;;;;5033722;28;20040;-74
2021/01/03 07:34:08;;;;;;;27.77;17.45;;;13.90;75.50;;;;;;5030512;28;20038;-73
2021/01/03 07:36:48;;;;;;;19.17;14.40;;;13.90;76.10;;;;;;5019763;28;20030;-74
2021/01/03 07:39:20;;;;;;;23.10;14.90;;;13.90;76.20;;;;;;5037206;28;20032;-73
2021/01/03 07:41:49;;;;;;;19.80;14.32;;;13.90;76.10;;;;;;5030090;28;20021;-73
2021/01/03 07:44:21;;;;;;;22.98;14.63;;;14.00;76.10;;;;;;5044099;28;20021;-72
2021/01/03 07:46:51;;;;;;;29.00;17.58;;;13.90;76.10;;;;;;5036033;28;20475;-74
2021/01/03 07:49:40;;;;;;;27.67;15.68;;;14.00;76.10;;;;;;5041184;28;20159;-74
2021/01/03 07:52:18;;;;;;;28.15;18.70;;;14.00;76.00;;;;;;5031411;28;20022;-73
2021/01/03 07:54:49;;;;;;;27.30;16.92;;;14.00;75.80;;;;;;5034850;28;20107;-72
2021/01/03 07:57:16;;;;;;;20.77;15.23;;;14.00;76.00;;;;;;5025687;28;20018;-75
2021/01/03 07:59:45;;;;;;;21.45;14.90;;;14.00;76.00;;;;;;5025231;28;20026;-73
2021/01/03 08:02:13;;;;;;;28.00;16.38;;;14.00;75.80;;;;;;5034847;28;20043;-73
2021/01/03 08:04:39;;;;;;;29.00;15.80;;;14.00;75.50;;;;;;5042498;28;20017;-73
2021/01/03 08:07:17;;;;;;;32.50;19.98;;;14.00;75.50;;;;;;5038046;28;20025;-74
2021/01/03 08:09:44;;;;;;;26.52;15.20;;;13.90;75.50;;;;;;5029668;28;20032;-73
2021/01/03 08:12:17;;;;;;;28.05;16.17;;;13.90;75.70;;;;;;5027769;28;20036;-73
2021/01/03 08:14:46;;;;;;;22.40;14.20;;;13.90;76.10;;;;;;5043693;28;20037;-74
2021/01/03 08:17:25;;;;;;;26.45;15.68;;;13.90;76.10;;;;;;5038880;28;20044;-73
2021/01/03 08:19:52;;;;;;;38.13;20.17;;;13.90;75.90;;;;;;5029899;28;20026;-73
2021/01/03 08:22:28;;;;;;;37.63;20.55;;;13.90;75.40;;;;;;5037078;28;20469;-74
2021/01/03 08:25:04;;;;;;;36.60;19.15;;;13.90;75.20;;;;;;5036365;28;20105;-73
2021/01/03 08:27:56;;;;;;;41.10;22.38;;;13.80;75.30;;;;;;5036941;28;20037;-74
2021/01/03 08:30:25;;;;;;;32.35;18.30;;;13.80;76.00;;;;;;5027143;28;20028;-73
2021/01/03 08:32:53;;;;;;;41.22;20.35;;;13.80;75.50;;;;;;5038811;28;20025;-74
2021/01/03 08:35:31;;;;;;;30.45;18.88;;;13.70;75.30;;;;;;5039882;28;20627;-74
2021/01/03 08:37:58;;;;;;;29.75;17.00;;;13.70;75.20;;;;;;5040287;28;20021;-73
2021/01/03 08:40:37;;;;;;;28.27;17.75;;;13.70;75.60;;;;;;5025799;28;20042;-73
2021/01/03 08:43:24;;;;;;;34.20;20.35;;;13.60;75.70;;;;;;5034565;28;20092;-73
2021/01/03 08:45:52;;;;;;;33.15;19.13;;;13.60;75.50;;;;;;5036914;28;20459;-73
2021/01/03 08:48:24;;;;;;;47.72;25.67;;;13.60;75.70;;;;;;5038651;28;20337;-74
2021/01/03 08:51:14;;;;;;;30.20;19.02;;;13.60;75.00;;;;;;5032741;28;20475;-73
2021/01/03 08:53:41;;;;;;;34.63;21.05;;;13.60;75.40;;;;;;5039583;28;20099;-73
2021/01/03 08:56:15;;;;;;;28.75;17.50;;;13.60;75.70;;;;;;5038141;28;20037;-73
2021/01/03 08:58:42;;;;;;;30.08;18.73;;;13.50;75.60;;;;;;5032211;28;20030;-74
2021/01/03 09:01:27;;;;;;;40.20;18.95;;;13.50;75.60;;;;;;5040618;28;20017;-74
2021/01/03 09:04:01;;;;;;;31.48;18.63;;;13.40;75.70;;;;;;5031469;28;20056;-74
2021/01/03 09:06:29;;;;;;;28.83;16.27;;;13.40;76.10;;;;;;5034271;28;20025;-74
2021/01/03 09:08:56;;;;;;;33.38;17.40;;;13.50;76.20;;;;;;5039270;28;20013;-74
2021/01/03 09:11:33;;;;;;;26.27;16.20;;;13.50;76.30;;;;;;5035995;28;20557;-74
2021/01/03 09:14:16;;;;;;;28.90;18.50;;;13.50;76.00;;;;;;5033927;28;20036;-74
2021/01/03 09:17:14;;;;;;;29.45;17.35;;;13.40;75.90;;;;;;5032674;28;20556;-74
2021/01/03 09:20:04;;;;;;;27.00;14.18;;;13.50;75.90;;;;;;5030959;28;20081;-74
2021/01/03 09:22:33;;;;;;;38.85;16.95;;;13.40;76.30;;;;;;5033510;28;20029;-74
2021/01/03 09:25:06;;;;;;;22.08;14.90;;;13.50;76.40;;;;;;5033709;28;20112;-74
2021/01/03 09:27:34;;;;;;;25.02;13.95;;;13.40;76.30;;;;;;5027515;28;20029;-75
2021/01/03 09:30:20;;;;;;;27.80;14.77;;;13.50;76.30;;;;;;5033457;28;20037;-75
2021/01/03 09:32:52;;;;;;;25.75;14.90;;;13.50;76.30;;;;;;5030942;28;20419;-75
2021/01/03 09:35:42;;;;;;;34.22;21.27;;;13.50;76.20;;;;;;5033300;28;20026;-74
2021/01/03 09:38:31;;;;;;;34.55;19.80;;;13.60;75.80;;;;;;5025920;28;20359;-74
2021/01/03 09:41:00;;;;;;;50.00;21.35;;;13.50;76.00;;;;;;5028754;28;20348;-74
2021/01/03 09:44:08;;;;;;;44.90;23.20;;;13.60;75.50;;;;;;5034219;28;20506;-74
2021/01/03 09:47:07;;;;;;;34.17;21.50;;;13.60;74.70;;;;;;5013804;28;20037;-74
2021/01/03 09:49:36;;;;;;;39.42;21.77;;;13.50;74.80;;;;;;5027051;28;20022;-74
2021/01/03 09:52:35;;;;;;;27.70;17.88;;;13.50;75.20;;;;;;5020058;28;20096;-74
2021/01/03 09:55:16;;;;;;;31.58;17.85;;;13.40;75.40;;;;;;5028337;28;20037;-75
2021/01/03 09:57:54;;;;;;;34.42;20.58;;;13.30;76.30;;;;;;5023340;28;20026;-74
2021/01/03 10:00:24;;;;;;;24.67;15.90;;;13.30;75.80;;;;;;5028612;28;20033;-74
2021/01/03 10:02:52;;;;;;;21.60;15.82;;;13.30;76.10;;;;;;5023324;28;20037;-74
2021/01/03 10:05:30;;;;;;;29.08;18.40;;;13.20;75.80;;;;;;5015700;28;20026;-74
2021/01/03 10:08:03;;;;;;;36.53;19.80;;;13.20;75.40;;;;;;5015059;28;20037;-74
2021/01/03 10:10:47;;;;;;;33.33;19.40;;;13.20;75.10;;;;;;5015982;28;20030;-74
2021/01/03 10:13:14;;;;;;;41.92;22.30;;;13.20;74.60;;;;;;5025033;28;20076;-74
2021/01/03 10:15:41;;;;;;;31.85;19.35;;;13.20;74.20;;;;;;5024325;28;20028;-74
2021/01/03 10:18:12;;;;;;;31.83;19.48;;;13.20;73.90;;;;;;5029769;28;20030;-74
2021/01/03 10:20:47;;;;;;;24.80;14.80;;;13.10;74.70;;;;;;5036355;28;20033;-75
2021/01/03 10:23:38;;;;;;;28.83;16.05;;;13.00;75.60;;;;;;5025646;28;20026;-74
2021/01/03 10:26:31;;;;;;;20.20;12.90;;;12.90;75.70;;;;;;5033919;28;20043;-75
2021/01/03 10:28:57;;;;;;;24.17;15.30;;;12.80;75.70;;;;;;5031295;28;20025;-75
2021/01/03 10:31:38;;;;;;;26.80;15.57;;;12.90;75.70;;;;;;5031139;28;20029;-75
2021/01/03 10:34:05;;;;;;;26.13;15.38;;;12.80;75.20;;;;;;5014173;28;20034;-74
2021/01/03 10:36:31;;;;;;;14.95;10.50;;;12.80;74.80;;;;;;5024110;28;20029;-74
2021/01/03 10:38:57;;;;;;;14.80;10.75;;;12.70;75.10;;;;;;5029757;28;20042;-74
2021/01/03 10:41:32;;;;;;;22.75;14.25;;;12.70;75.60;;;;;;5029802;28;20120;-74
2021/01/03 10:43:59;;;;;;;24.60;14.10;;;12.60;75.40;;;;;;5031814;28;20101;-74
2021/01/03 10:46:25;;;;;;;21.48;12.10;;;12.70;75.10;;;;;;5018617;28;20052;-74
2021/01/03 10:48:52;;;;;;;20.65;11.32;;;12.60;75.20;;;;;;5023075;28;20021;-75
2021/01/03 10:51:27;;;;;;;21.60;11.88;;;12.60;75.20;;;;;;5025567;28;20030;-74
2021/01/03 10:53:53;;;;;;;27.70;10.57;;;12.60;74.90;;;;;;5038200;28;20459;-74
2021/01/03 10:56:20;;;;;;;19.05;10.77;;;12.50;75.60;;;;;;5037143;28;20108;-74
2021/01/03 10:58:46;;;;;;;19.77;13.52;;;12.40;75.10;;;;;;5036128;28;20041;-74
2021/01/03 11:01:12;;;;;;;26.17;12.05;;;12.40;75.00;;;;;;5030864;28;20451;-74
2021/01/03 11:03:41;;;;;;;18.15;10.10;;;12.30;75.10;;;;;;5031343;28;20022;-73
2021/01/03 11:06:07;;;;;;;14.75;8.30;;;12.30;75.30;;;;;;5034970;28;20108;-73
2021/01/03 11:08:33;;;;;;;16.25;8.80;;;12.20;75.30;;;;;;5030559;28;20400;-75
2021/01/03 11:11:00;;;;;;;8.95;7.32;;;12.20;75.20;;;;;;5023411;28;20033;-73
2021/01/03 11:13:29;;;;;;;13.90;7.85;;;12.10;75.20;;;;;;5032712;28;20025;-73
2021/01/03 11:15:55;;;;;;;18.10;9.40;;;12.10;75.30;;;;;;5007984;28;20390;-74
2021/01/03 11:18:22;;;;;;;14.60;8.85;;;12.10;75.10;;;;;;5030808;28;20040;-74
2021/01/03 11:20:49;;;;;;;14.90;8.50;;;12.10;74.70;;;;;;5035421;28;20041;-74
2021/01/03 11:23:15;;;;;;;18.23;9.23;;;12.00;75.30;;;;;;5037070;28;20060;-73
2021/01/03 11:25:45;;;;;;;20.30;9.68;;;11.90;74.90;;;;;;5020141;28;20476;-74
2021/01/03 11:28:12;;;;;;;25.15;12.00;;;11.90;74.60;;;;;;5025196;28;20026;-73
2021/01/03 11:30:38;;;;;;;25.08;10.77;;;11.90;73.90;;;;;;5027952;28;20455;-73
2021/01/03 11:33:05;;;;;;;19.67;10.07;;;11.90;73.80;;;;;;5036785;28;20025;-74
2021/01/03 11:35:31;;;;;;;26.33;9.63;;;11.80;73.80;;;;;;5028287;28;20017;-74
2021/01/03 11:37:58;;;;;;;18.17;9.95;;;11.80;73.60;;;;;;5036492;28;20029;-76
2021/01/03 11:40:25;;;;;;;19.20;10.02;;;11.80;73.70;;;;;;5031280;28;20406;-73
2021/01/03 11:42:51;;;;;;;14.80;7.50;;;11.70;73.60;;;;;;5044552;28;20029;-73
2021/01/03 11:45:20;;;;;;;15.85;7.53;;;11.70;74.30;;;;;;5029707;28;20075;-73
2021/01/03 11:47:46;;;;;;;15.25;8.23;;;11.60;74.60;;;;;;5035554;28;20017;-73
2021/01/03 11:50:17;;;;;;;13.52;7.50;;;11.60;74.70;;;;;;5031324;28;20024;-74
2021/01/03 11:52:43;;;;;;;13.20;7.47;;;11.60;74.20;;;;;;5033957;28;20048;-73
2021/01/03 11:55:12;;;;;;;9.40;7.00;;;11.60;74.20;;;;;;5034548;28;20025;-73
2021/01/03 11:57:39;;;;;;;12.10;6.55;;;11.60;73.60;;;;;;5037044;28;20498;-74
2021/01/03 12:00:07;;;;;;;15.25;6.45;;;11.60;74.20;;;;;;5027371;28;20034;-74
2021/01/03 12:02:34;;;;;;;16.08;7.30;;;11.60;74.10;;;;;;5032250;28;20022;-75
2021/01/03 12:05:00;;;;;;;13.73;6.28;;;11.60;74.50;;;;;;5036606;28;20025;-74
2021/01/03 12:07:27;;;;;;;21.23;6.88;;;11.50;75.20;;;;;;5035139;28;20022;-73
2021/01/03 12:09:53;;;;;;;29.73;9.60;;;11.50;75.00;;;;;;5031679;28;20382;-74
2021/01/03 12:12:21;;;;;;;31.05;9.80;;;11.60;74.80;;;;;;5028441;28;20029;-74
2021/01/03 12:14:49;;;;;;;40.13;11.30;;;11.60;74.50;;;;;;5034474;28;20101;-74
2021/01/03 12:17:19;;;;;;;66.22;10.77;;;11.70;75.00;;;;;;5032816;28;20037;-73
2021/01/03 12:19:48;;;;;;;32.88;10.48;;;11.80;74.30;;;;;;5034954;28;20455;-73
2021/01/03 12:22:15;;;;;;;62.28;11.23;;;11.80;74.40;;;;;;5036696;28;20056;-74
2021/01/03 12:24:43;;;;;;;42.88;10.18;;;11.60;74.30;;;;;;5035841;28;20021;-74
2021/01/03 12:27:11;;;;;;;21.67;8.23;;;11.50;74.90;;;;;;5018952;28;20115;-73
2021/01/03 12:29:37;;;;;;;48.50;10.73;;;11.30;75.90;;;;;;5035022;28;20040;-73
2021/01/03 12:32:07;;;;;;;31.40;9.77;;;11.40;75.60;;;;;;5031585;28;20021;-74
2021/01/03 12:34:34;;;;;;;26.17;8.45;;;11.40;75.40;;;;;;5033236;28;20033;-74
2021/01/03 12:37:15;;;;;;;11.65;5.95;;;11.40;75.00;;;;;;5034256;28;20054;-73
2021/01/03 12:39:43;;;;;;;14.23;6.25;;;11.30;75.70;;;;;;5035065;28;20099;-74
2021/01/03 12:42:12;;;;;;;6.53;4.22;;;11.20;75.40;;;;;;5033485;28;20477;-74
2021/01/03 12:44:39;;;;;;;7.53;5.75;;;11.20;76.10;;;;;;5035122;28;20079;-74
2021/01/03 12:47:06;;;;;;;8.00;4.60;;;11.20;76.20;;;;;;5035856;28;20026;-73
2021/01/03 12:49:33;;;;;;;7.13;4.53;;;11.20;76.30;;;;;;5034972;28;20021;-75
2021/01/03 12:52:00;;;;;;;13.98;5.55;;;11.30;75.80;;;;;;5027703;28;20026;-74
2021/01/03 12:54:27;;;;;;;6.85;4.47;;;11.20;76.10;;;;;;5030523;28;20026;-73
2021/01/03 12:56:54;;;;;;;15.60;5.13;;;11.20;76.50;;;;;;5034290;28;20414;-73
2021/01/03 12:59:20;;;;;;;10.15;4.20;;;11.20;76.10;;;;;;5027591;28;20367;-74
2021/01/03 13:01:47;;;;;;;11.60;5.13;;;11.30;75.80;;;;;;5028982;28;20029;-73
2021/01/03 13:04:16;;;;;;;14.52;5.18;;;11.50;75.30;;;;;;5035052;28;20563;-73
2021/01/03 13:06:43;;;;;;;13.25;5.47;;;11.60;74.40;;;;;;5028479;28;20036;-73
2021/01/03 13:09:14;;;;;;;10.40;4.85;;;11.50;74.60;;;;;;5027365;28;20067;-73
2021/01/03 13:11:41;;;;;;;14.93;5.55;;;11.50;74.90;;;;;;5040313;28;20029;-73
2021/01/03 13:14:10;;;;;;;22.58;6.90;;;11.40;74.60;;;;;;5049603;28;20036;-73
2021/01/03 13:16:37;;;;;;;15.05;6.00;;;11.40;75.00;;;;;;5034809;28;20060;-73